sensor_id;sensor_type;location;lat;lon;timestamp;temperature;humidity
774;DHT22;370;48.810;9.150;2022-10-19T00:01:00;12.90;64.30
774;DHT22;370;48.810;9.150;2022-10-19T00:03:27;13.00;65.70
774;DHT22;370;48.810;9.150;2022-10-19T00:05:54;13.00;66.10
774;DHT22;370;48.810;9.150;2022-10-19T00:08:20;13.00;65.50
774;DHT22;370;48.810;9.150;2022-10-19T00:10:49;13.00;63.70
774;DHT22;370;48.810;9.150;2022-10-19T00:13:15;12.90;62.30
774;DHT22;370;48.810;9.150;2022-10-19T00:15:42;12.80;63.50
774;DHT22;370;48.810;9.150;2022-10-19T00:18:09;12.80;62.90
774;DHT22;370;48.810;9.150;2022-10-19T00:20:36;12.80;62.90
774;DHT22;370;48.810;9.150;2022-10-19T00:23:03;12.90;63.00
774;DHT22;370;48.810;9.150;2022-10-19T00:25:30;12.80;62.20
774;DHT22;370;48.810;9.150;2022-10-19T00:27:58;12.70;63.40
774;DHT22;370;48.810;9.150;2022-10-19T00:30:25;12.70;65.70
774;DHT22;370;48.810;9.150;2022-10-19T00:32:52;12.60;66.10
774;DHT22;370;48.810;9.150;2022-10-19T00:35:19;12.50;67.10
774;DHT22;370;48.810;9.150;2022-10-19T00:37:45;12.60;67.10
774;DHT22;370;48.810;9.150;2022-10-19T00:40:12;12.60;64.70
774;DHT22;370;48.810;9.150;2022-10-19T00:42:39;12.50;64.90
774;DHT22;370;48.810;9.150;2022-10-19T00:45:12;12.50;64.70
774;DHT22;370;48.810;9.150;2022-10-19T00:47:39;12.50;63.70
774;DHT22;370;48.810;9.150;2022-10-19T00:50:07;12.50;65.60
774;DHT22;370;48.810;9.150;2022-10-19T00:52:34;12.50;67.30
774;DHT22;370;48.810;9.150;2022-10-19T00:55:02;12.70;69.60
774;DHT22;370;48.810;9.150;2022-10-19T00:57:30;12.70;69.30
774;DHT22;370;48.810;9.150;2022-10-19T00:59:58;12.70;67.60
774;DHT22;370;48.810;9.150;2022-10-19T01:02:27;12.70;67.00
774;DHT22;370;48.810;9.150;2022-10-19T01:04:54;12.70;69.00
774;DHT22;370;48.810;9.150;2022-10-19T01:07:21;12.90;71.30
774;DHT22;370;48.810;9.150;2022-10-19T01:09:49;12.90;71.10
774;DHT22;370;48.810;9.150;2022-10-19T01:12:26;13.00;72.80
774;DHT22;370;48.810;9.150;2022-10-19T01:15:09;13.10;73.30
774;DHT22;370;48.810;9.150;2022-10-19T01:21:19;13.10;72.70
774;DHT22;370;48.810;9.150;2022-10-19T01:24:10;13.20;73.40
774;DHT22;370;48.810;9.150;2022-10-19T01:30:10;13.50;70.80
774;DHT22;370;48.810;9.150;2022-10-19T01:32:46;13.70;68.90
774;DHT22;370;48.810;9.150;2022-10-19T01:35:23;13.80;66.10
774;DHT22;370;48.810;9.150;2022-10-19T01:37:58;13.80;64.70
774;DHT22;370;48.810;9.150;2022-10-19T01:40:32;13.90;65.80
774;DHT22;370;48.810;9.150;2022-10-19T01:43:08;14.00;66.30
774;DHT22;370;48.810;9.150;2022-10-19T01:45:41;14.10;64.10
774;DHT22;370;48.810;9.150;2022-10-19T01:48:14;14.10;62.80
774;DHT22;370;48.810;9.150;2022-10-19T01:50:45;14.00;60.50
774;DHT22;370;48.810;9.150;2022-10-19T01:53:16;14.10;63.00
774;DHT22;370;48.810;9.150;2022-10-19T01:55:44;14.20;62.50
774;DHT22;370;48.810;9.150;2022-10-19T01:58:16;14.10;61.00
774;DHT22;370;48.810;9.150;2022-10-19T02:00:46;14.20;64.30
774;DHT22;370;48.810;9.150;2022-10-19T02:03:15;14.30;62.40
774;DHT22;370;48.810;9.150;2022-10-19T02:05:43;14.20;62.80
774;DHT22;370;48.810;9.150;2022-10-19T02:08:13;14.40;63.90
774;DHT22;370;48.810;9.150;2022-10-19T02:10:43;14.60;60.20
774;DHT22;370;48.810;9.150;2022-10-19T02:13:13;14.70;59.60
774;DHT22;370;48.810;9.150;2022-10-19T02:15:43;14.80;57.70
774;DHT22;370;48.810;9.150;2022-10-19T02:18:16;14.90;55.20
774;DHT22;370;48.810;9.150;2022-10-19T02:20:45;15.00;53.40
774;DHT22;370;48.810;9.150;2022-10-19T02:23:12;15.10;50.60
774;DHT22;370;48.810;9.150;2022-10-19T02:25:40;15.10;50.00
774;DHT22;370;48.810;9.150;2022-10-19T02:28:07;15.20;50.00
774;DHT22;370;48.810;9.150;2022-10-19T02:30:34;15.20;50.60
774;DHT22;370;48.810;9.150;2022-10-19T02:33:01;15.20;50.00
774;DHT22;370;48.810;9.150;2022-10-19T02:35:29;15.20;50.00
774;DHT22;370;48.810;9.150;2022-10-19T02:37:58;15.30;48.10
774;DHT22;370;48.810;9.150;2022-10-19T02:40:28;15.30;48.70
774;DHT22;370;48.810;9.150;2022-10-19T02:42:59;15.40;49.00
774;DHT22;370;48.810;9.150;2022-10-19T02:45:31;15.40;48.50
774;DHT22;370;48.810;9.150;2022-10-19T02:48:02;15.40;48.90
774;DHT22;370;48.810;9.150;2022-10-19T02:50:31;15.50;49.00
774;DHT22;370;48.810;9.150;2022-10-19T02:52:58;15.40;48.90
774;DHT22;370;48.810;9.150;2022-10-19T02:55:25;15.50;49.20
774;DHT22;370;48.810;9.150;2022-10-19T02:57:52;15.50;49.40
774;DHT22;370;48.810;9.150;2022-10-19T03:00:19;15.50;49.60
774;DHT22;370;48.810;9.150;2022-10-19T03:02:46;15.50;49.50
774;DHT22;370;48.810;9.150;2022-10-19T03:05:12;15.50;49.80
774;DHT22;370;48.810;9.150;2022-10-19T03:07:40;15.50;49.30
774;DHT22;370;48.810;9.150;2022-10-19T03:10:08;15.60;50.10
774;DHT22;370;48.810;9.150;2022-10-19T03:12:35;15.60;49.70
774;DHT22;370;48.810;9.150;2022-10-19T03:15:02;15.60;49.00
774;DHT22;370;48.810;9.150;2022-10-19T03:17:29;15.60;49.40
774;DHT22;370;48.810;9.150;2022-10-19T03:19:56;15.70;49.60
774;DHT22;370;48.810;9.150;2022-10-19T03:22:23;15.70;49.30
774;DHT22;370;48.810;9.150;2022-10-19T03:24:51;15.70;48.40
774;DHT22;370;48.810;9.150;2022-10-19T03:27:17;15.80;48.50
774;DHT22;370;48.810;9.150;2022-10-19T03:29:44;15.70;48.80
774;DHT22;370;48.810;9.150;2022-10-19T03:32:11;15.80;49.00
774;DHT22;370;48.810;9.150;2022-10-19T03:34:38;15.80;48.80
774;DHT22;370;48.810;9.150;2022-10-19T03:37:05;15.80;48.70
774;DHT22;370;48.810;9.150;2022-10-19T03:39:33;15.80;49.30
774;DHT22;370;48.810;9.150;2022-10-19T03:42:01;15.80;49.10
774;DHT22;370;48.810;9.150;2022-10-19T03:44:28;15.80;49.80
774;DHT22;370;48.810;9.150;2022-10-19T03:46:54;15.80;50.80
774;DHT22;370;48.810;9.150;2022-10-19T03:49:21;15.80;51.30
774;DHT22;370;48.810;9.150;2022-10-19T03:51:48;15.90;51.40
774;DHT22;370;48.810;9.150;2022-10-19T03:54:15;15.90;50.80
774;DHT22;370;48.810;9.150;2022-10-19T03:56:43;15.90;50.50
774;DHT22;370;48.810;9.150;2022-10-19T03:59:13;15.90;50.80
774;DHT22;370;48.810;9.150;2022-10-19T04:01:42;15.90;50.90
774;DHT22;370;48.810;9.150;2022-10-19T04:04:10;15.90;50.50
774;DHT22;370;48.810;9.150;2022-10-19T04:06:39;15.90;49.70
774;DHT22;370;48.810;9.150;2022-10-19T04:09:07;15.90;50.40
774;DHT22;370;48.810;9.150;2022-10-19T04:11:35;15.90;50.20
774;DHT22;370;48.810;9.150;2022-10-19T04:14:01;16.00;50.10
774;DHT22;370;48.810;9.150;2022-10-19T04:16:31;16.00;49.80
774;DHT22;370;48.810;9.150;2022-10-19T04:18:58;16.00;49.40
774;DHT22;370;48.810;9.150;2022-10-19T04:21:27;16.00;49.60
774;DHT22;370;48.810;9.150;2022-10-19T04:23:58;16.00;49.70
774;DHT22;370;48.810;9.150;2022-10-19T04:26:25;15.90;50.70
774;DHT22;370;48.810;9.150;2022-10-19T04:28:52;15.90;50.90
774;DHT22;370;48.810;9.150;2022-10-19T04:31:19;16.00;50.90
774;DHT22;370;48.810;9.150;2022-10-19T04:33:47;16.00;50.60
774;DHT22;370;48.810;9.150;2022-10-19T04:36:14;16.00;50.10
774;DHT22;370;48.810;9.150;2022-10-19T04:38:40;15.90;50.10
774;DHT22;370;48.810;9.150;2022-10-19T04:41:09;15.90;50.20
774;DHT22;370;48.810;9.150;2022-10-19T04:43:36;15.90;50.50
774;DHT22;370;48.810;9.150;2022-10-19T04:46:05;15.90;50.60
774;DHT22;370;48.810;9.150;2022-10-19T04:48:33;15.90;50.40
774;DHT22;370;48.810;9.150;2022-10-19T04:51:01;15.90;50.50
774;DHT22;370;48.810;9.150;2022-10-19T04:53:29;15.90;50.10
774;DHT22;370;48.810;9.150;2022-10-19T04:55:55;16.00;49.80
774;DHT22;370;48.810;9.150;2022-10-19T04:58:23;15.90;50.10
774;DHT22;370;48.810;9.150;2022-10-19T05:00:50;15.90;49.40
774;DHT22;370;48.810;9.150;2022-10-19T05:03:17;15.90;49.70
774;DHT22;370;48.810;9.150;2022-10-19T05:05:43;15.90;49.40
774;DHT22;370;48.810;9.150;2022-10-19T05:08:11;15.70;50.10
774;DHT22;370;48.810;9.150;2022-10-19T05:10:38;15.60;52.90
774;DHT22;370;48.810;9.150;2022-10-19T05:13:05;15.50;55.50
774;DHT22;370;48.810;9.150;2022-10-19T05:15:32;15.60;56.40
774;DHT22;370;48.810;9.150;2022-10-19T05:17:59;15.50;56.20
774;DHT22;370;48.810;9.150;2022-10-19T05:20:26;15.50;56.90
774;DHT22;370;48.810;9.150;2022-10-19T05:22:52;15.50;57.70
774;DHT22;370;48.810;9.150;2022-10-19T05:25:20;15.70;57.20
774;DHT22;370;48.810;9.150;2022-10-19T05:27:50;15.70;55.60
774;DHT22;370;48.810;9.150;2022-10-19T05:30:17;15.80;54.60
774;DHT22;370;48.810;9.150;2022-10-19T05:32:44;15.90;53.10
774;DHT22;370;48.810;9.150;2022-10-19T05:35:11;15.90;52.90
774;DHT22;370;48.810;9.150;2022-10-19T05:37:37;16.00;52.20
774;DHT22;370;48.810;9.150;2022-10-19T05:40:05;16.00;50.50
774;DHT22;370;48.810;9.150;2022-10-19T05:42:34;15.90;48.30
774;DHT22;370;48.810;9.150;2022-10-19T05:45:00;15.70;49.40
774;DHT22;370;48.810;9.150;2022-10-19T05:47:27;15.70;50.80
774;DHT22;370;48.810;9.150;2022-10-19T05:49:54;15.80;50.60
774;DHT22;370;48.810;9.150;2022-10-19T05:52:21;15.80;49.50
774;DHT22;370;48.810;9.150;2022-10-19T05:54:47;15.60;50.60
774;DHT22;370;48.810;9.150;2022-10-19T05:57:14;15.70;49.00
774;DHT22;370;48.810;9.150;2022-10-19T05:59:42;15.70;47.80
774;DHT22;370;48.810;9.150;2022-10-19T06:02:12;15.70;48.80
774;DHT22;370;48.810;9.150;2022-10-19T06:04:39;15.60;50.00
774;DHT22;370;48.810;9.150;2022-10-19T06:07:05;15.70;50.00
774;DHT22;370;48.810;9.150;2022-10-19T06:09:32;15.70;48.00
774;DHT22;370;48.810;9.150;2022-10-19T06:12:01;15.60;48.70
774;DHT22;370;48.810;9.150;2022-10-19T06:14:27;15.50;50.60
774;DHT22;370;48.810;9.150;2022-10-19T06:16:56;15.60;50.60
774;DHT22;370;48.810;9.150;2022-10-19T06:19:22;15.70;47.80
774;DHT22;370;48.810;9.150;2022-10-19T06:21:49;15.80;48.40
774;DHT22;370;48.810;9.150;2022-10-19T06:24:16;15.90;48.00
774;DHT22;370;48.810;9.150;2022-10-19T06:26:43;15.90;46.50
774;DHT22;370;48.810;9.150;2022-10-19T06:29:10;16.00;46.00
774;DHT22;370;48.810;9.150;2022-10-19T06:31:36;16.00;45.60
774;DHT22;370;48.810;9.150;2022-10-19T06:34:05;16.10;45.40
774;DHT22;370;48.810;9.150;2022-10-19T06:36:32;16.10;43.90
774;DHT22;370;48.810;9.150;2022-10-19T06:38:59;16.20;43.30
774;DHT22;370;48.810;9.150;2022-10-19T06:41:27;16.30;41.40
774;DHT22;370;48.810;9.150;2022-10-19T06:43:54;16.30;40.60
774;DHT22;370;48.810;9.150;2022-10-19T06:46:22;16.20;40.10
774;DHT22;370;48.810;9.150;2022-10-19T06:48:51;16.20;39.60
774;DHT22;370;48.810;9.150;2022-10-19T06:51:20;16.20;40.20
774;DHT22;370;48.810;9.150;2022-10-19T06:53:47;16.20;38.90
774;DHT22;370;48.810;9.150;2022-10-19T06:56:13;16.20;39.30
774;DHT22;370;48.810;9.150;2022-10-19T06:58:40;16.30;38.10
774;DHT22;370;48.810;9.150;2022-10-19T07:01:08;16.30;38.60
774;DHT22;370;48.810;9.150;2022-10-19T07:03:36;16.40;37.40
774;DHT22;370;48.810;9.150;2022-10-19T07:06:05;16.40;36.10
774;DHT22;370;48.810;9.150;2022-10-19T07:08:34;16.30;36.00
774;DHT22;370;48.810;9.150;2022-10-19T07:11:03;16.30;37.80
774;DHT22;370;48.810;9.150;2022-10-19T07:13:31;16.50;36.60
774;DHT22;370;48.810;9.150;2022-10-19T07:15:58;16.40;35.50
774;DHT22;370;48.810;9.150;2022-10-19T07:18:27;16.40;36.10
774;DHT22;370;48.810;9.150;2022-10-19T07:20:55;16.50;37.10
774;DHT22;370;48.810;9.150;2022-10-19T07:23:22;16.70;36.30
774;DHT22;370;48.810;9.150;2022-10-19T07:25:51;16.70;33.30
774;DHT22;370;48.810;9.150;2022-10-19T07:28:19;16.60;35.50
774;DHT22;370;48.810;9.150;2022-10-19T07:30:46;16.80;33.80
774;DHT22;370;48.810;9.150;2022-10-19T07:33:13;16.90;32.60
774;DHT22;370;48.810;9.150;2022-10-19T07:35:39;17.00;31.10
774;DHT22;370;48.810;9.150;2022-10-19T07:38:06;17.10;31.60
774;DHT22;370;48.810;9.150;2022-10-19T07:40:33;17.30;28.90
774;DHT22;370;48.810;9.150;2022-10-19T07:43:02;17.40;27.30
774;DHT22;370;48.810;9.150;2022-10-19T07:45:29;17.60;26.90
774;DHT22;370;48.810;9.150;2022-10-19T07:47:55;17.90;26.00
774;DHT22;370;48.810;9.150;2022-10-19T07:50:22;18.00;22.40
774;DHT22;370;48.810;9.150;2022-10-19T07:52:50;18.00;20.80
774;DHT22;370;48.810;9.150;2022-10-19T07:55:17;18.10;21.40
774;DHT22;370;48.810;9.150;2022-10-19T07:57:46;18.10;20.10
774;DHT22;370;48.810;9.150;2022-10-19T08:00:15;18.20;19.40
774;DHT22;370;48.810;9.150;2022-10-19T08:02:42;18.00;19.20
774;DHT22;370;48.810;9.150;2022-10-19T08:05:09;18.10;21.00
774;DHT22;370;48.810;9.150;2022-10-19T08:07:35;18.60;18.80
774;DHT22;370;48.810;9.150;2022-10-19T08:10:03;18.80;16.30
774;DHT22;370;48.810;9.150;2022-10-19T08:12:30;18.40;17.00
774;DHT22;370;48.810;9.150;2022-10-19T08:14:56;18.70;17.00
774;DHT22;370;48.810;9.150;2022-10-19T08:17:24;18.90;15.00
774;DHT22;370;48.810;9.150;2022-10-19T08:19:51;19.00;14.00
774;DHT22;370;48.810;9.150;2022-10-19T08:22:18;19.20;15.10
774;DHT22;370;48.810;9.150;2022-10-19T08:24:45;18.80;12.70
774;DHT22;370;48.810;9.150;2022-10-19T08:27:11;18.60;14.30
774;DHT22;370;48.810;9.150;2022-10-19T08:29:39;18.30;15.70
774;DHT22;370;48.810;9.150;2022-10-19T08:32:06;18.30;16.10
774;DHT22;370;48.810;9.150;2022-10-19T08:34:34;18.20;17.60
774;DHT22;370;48.810;9.150;2022-10-19T08:37:01;18.30;18.00
774;DHT22;370;48.810;9.150;2022-10-19T08:39:28;18.10;16.00
774;DHT22;370;48.810;9.150;2022-10-19T08:42:00;18.10;17.50
774;DHT22;370;48.810;9.150;2022-10-19T08:47:44;17.90;18.70
774;DHT22;370;48.810;9.150;2022-10-19T08:50:19;17.80;18.10
774;DHT22;370;48.810;9.150;2022-10-19T08:52:50;18.00;18.20
774;DHT22;370;48.810;9.150;2022-10-19T08:55:23;17.80;17.50
774;DHT22;370;48.810;9.150;2022-10-19T08:57:59;17.80;18.70
774;DHT22;370;48.810;9.150;2022-10-19T09:00:36;17.80;17.90
774;DHT22;370;48.810;9.150;2022-10-19T09:03:15;17.90;17.70
774;DHT22;370;48.810;9.150;2022-10-19T09:05:47;17.80;16.80
774;DHT22;370;48.810;9.150;2022-10-19T09:08:17;17.70;18.20
774;DHT22;370;48.810;9.150;2022-10-19T09:10:48;17.80;18.20
774;DHT22;370;48.810;9.150;2022-10-19T09:13:19;17.80;16.40
774;DHT22;370;48.810;9.150;2022-10-19T09:15:48;17.70;17.30
774;DHT22;370;48.810;9.150;2022-10-19T09:18:19;17.80;18.50
774;DHT22;370;48.810;9.150;2022-10-19T09:20:49;18.00;16.70
774;DHT22;370;48.810;9.150;2022-10-19T09:23:20;18.10;16.00
774;DHT22;370;48.810;9.150;2022-10-19T09:25:49;18.10;14.10
774;DHT22;370;48.810;9.150;2022-10-19T09:28:28;18.10;15.20
774;DHT22;370;48.810;9.150;2022-10-19T09:30:58;18.20;15.70
774;DHT22;370;48.810;9.150;2022-10-19T09:33:29;18.10;15.20
774;DHT22;370;48.810;9.150;2022-10-19T09:36:01;18.00;14.80
774;DHT22;370;48.810;9.150;2022-10-19T09:38:29;17.90;15.30
774;DHT22;370;48.810;9.150;2022-10-19T09:40:56;17.80;15.20
774;DHT22;370;48.810;9.150;2022-10-19T09:43:25;18.00;16.80
774;DHT22;370;48.810;9.150;2022-10-19T09:45:55;18.30;15.50
774;DHT22;370;48.810;9.150;2022-10-19T09:48:29;18.40;13.40
774;DHT22;370;48.810;9.150;2022-10-19T09:50:59;18.60;14.10
774;DHT22;370;48.810;9.150;2022-10-19T09:53:27;18.60;11.60
774;DHT22;370;48.810;9.150;2022-10-19T09:56:00;18.60;11.40
774;DHT22;370;48.810;9.150;2022-10-19T09:58:29;18.50;13.30
774;DHT22;370;48.810;9.150;2022-10-19T10:00:56;18.50;12.40
774;DHT22;370;48.810;9.150;2022-10-19T10:03:26;18.40;13.10
774;DHT22;370;48.810;9.150;2022-10-19T10:05:55;18.30;12.70
774;DHT22;370;48.810;9.150;2022-10-19T10:08:26;17.90;14.10
774;DHT22;370;48.810;9.150;2022-10-19T10:11:05;17.80;14.80
774;DHT22;370;48.810;9.150;2022-10-19T10:13:36;17.60;15.80
774;DHT22;370;48.810;9.150;2022-10-19T10:16:06;17.50;16.40
774;DHT22;370;48.810;9.150;2022-10-19T10:18:36;17.50;17.80
774;DHT22;370;48.810;9.150;2022-10-19T10:21:11;17.40;16.40
774;DHT22;370;48.810;9.150;2022-10-19T10:23:40;17.50;16.90
774;DHT22;370;48.810;9.150;2022-10-19T10:26:16;17.50;16.50
774;DHT22;370;48.810;9.150;2022-10-19T10:28:47;17.60;16.50
774;DHT22;370;48.810;9.150;2022-10-19T10:31:14;17.60;16.20
774;DHT22;370;48.810;9.150;2022-10-19T10:33:52;17.90;16.40
774;DHT22;370;48.810;9.150;2022-10-19T10:36:23;17.80;15.30
774;DHT22;370;48.810;9.150;2022-10-19T10:38:55;18.10;14.50
774;DHT22;370;48.810;9.150;2022-10-19T10:41:23;18.00;14.20
774;DHT22;370;48.810;9.150;2022-10-19T10:43:55;18.20;14.40
774;DHT22;370;48.810;9.150;2022-10-19T10:46:25;18.50;13.00
774;DHT22;370;48.810;9.150;2022-10-19T10:48:56;18.60;10.90
774;DHT22;370;48.810;9.150;2022-10-19T10:51:31;18.70;11.60
774;DHT22;370;48.810;9.150;2022-10-19T10:54:20;18.80;10.10
774;DHT22;370;48.810;9.150;2022-10-19T10:57:12;18.90;9.80
774;DHT22;370;48.810;9.150;2022-10-19T10:59:48;18.90;9.70
774;DHT22;370;48.810;9.150;2022-10-19T11:02:31;19.10;8.70
774;DHT22;370;48.810;9.150;2022-10-19T11:05:05;19.10;9.10
774;DHT22;370;48.810;9.150;2022-10-19T11:07:33;19.20;8.60
774;DHT22;370;48.810;9.150;2022-10-19T11:10:06;19.30;7.70
774;DHT22;370;48.810;9.150;2022-10-19T11:12:40;19.50;7.00
774;DHT22;370;48.810;9.150;2022-10-19T11:15:15;19.60;6.80
774;DHT22;370;48.810;9.150;2022-10-19T11:17:55;19.70;5.50
774;DHT22;370;48.810;9.150;2022-10-19T11:20:26;19.70;5.30
774;DHT22;370;48.810;9.150;2022-10-19T11:23:02;19.70;5.80
774;DHT22;370;48.810;9.150;2022-10-19T11:25:38;19.70;5.50
774;DHT22;370;48.810;9.150;2022-10-19T11:28:17;19.70;4.90
774;DHT22;370;48.810;9.150;2022-10-19T11:30:54;19.50;5.70
774;DHT22;370;48.810;9.150;2022-10-19T11:33:35;19.70;6.40
774;DHT22;370;48.810;9.150;2022-10-19T11:36:07;19.80;5.10
774;DHT22;370;48.810;9.150;2022-10-19T11:38:45;19.90;5.20
774;DHT22;370;48.810;9.150;2022-10-19T11:41:23;20.30;4.50
774;DHT22;370;48.810;9.150;2022-10-19T11:44:04;20.50;3.10
774;DHT22;370;48.810;9.150;2022-10-19T11:46:41;20.40;3.00
774;DHT22;370;48.810;9.150;2022-10-19T11:49:19;20.50;2.90
774;DHT22;370;48.810;9.150;2022-10-19T11:51:53;20.70;3.20
774;DHT22;370;48.810;9.150;2022-10-19T11:54:33;20.70;1.70
774;DHT22;370;48.810;9.150;2022-10-19T11:57:08;21.20;1.00
774;DHT22;370;48.810;9.150;2022-10-19T11:59:49;21.50;1.00
774;DHT22;370;48.810;9.150;2022-10-19T12:02:40;21.90;1.00
774;DHT22;370;48.810;9.150;2022-10-19T12:05:15;22.30;1.00
774;DHT22;370;48.810;9.150;2022-10-19T12:07:54;22.10;1.00
774;DHT22;370;48.810;9.150;2022-10-19T12:10:30;22.00;1.00
774;DHT22;370;48.810;9.150;2022-10-19T12:13:03;21.20;1.00
774;DHT22;370;48.810;9.150;2022-10-19T12:15:33;21.10;1.00
774;DHT22;370;48.810;9.150;2022-10-19T12:18:07;21.30;1.00
774;DHT22;370;48.810;9.150;2022-10-19T12:20:38;21.60;1.00
774;DHT22;370;48.810;9.150;2022-10-19T12:23:20;22.00;1.00
774;DHT22;370;48.810;9.150;2022-10-19T12:25:49;22.20;1.00
774;DHT22;370;48.810;9.150;2022-10-19T12:28:21;22.30;1.00
774;DHT22;370;48.810;9.150;2022-10-19T12:30:50;22.30;1.00
774;DHT22;370;48.810;9.150;2022-10-19T12:33:22;22.50;1.00
774;DHT22;370;48.810;9.150;2022-10-19T12:36:00;22.90;1.00
774;DHT22;370;48.810;9.150;2022-10-19T12:38:41;23.60;1.00
774;DHT22;370;48.810;9.150;2022-10-19T12:41:19;24.30;1.00
774;DHT22;370;48.810;9.150;2022-10-19T12:44:00;24.70;1.00
774;DHT22;370;48.810;9.150;2022-10-19T12:46:37;23.70;1.00
774;DHT22;370;48.810;9.150;2022-10-19T12:49:34;23.30;1.00
774;DHT22;370;48.810;9.150;2022-10-19T12:52:01;23.50;1.00
774;DHT22;370;48.810;9.150;2022-10-19T12:54:31;23.20;1.00
774;DHT22;370;48.810;9.150;2022-10-19T12:57:00;22.80;1.00
774;DHT22;370;48.810;9.150;2022-10-19T12:59:31;22.50;1.00
774;DHT22;370;48.810;9.150;2022-10-19T13:02:00;22.50;1.00
774;DHT22;370;48.810;9.150;2022-10-19T13:04:29;22.40;1.00
774;DHT22;370;48.810;9.150;2022-10-19T13:07:01;22.10;1.00
774;DHT22;370;48.810;9.150;2022-10-19T13:09:31;21.70;1.00
774;DHT22;370;48.810;9.150;2022-10-19T13:12:26;21.50;1.00
774;DHT22;370;48.810;9.150;2022-10-19T13:14:56;21.20;1.00
774;DHT22;370;48.810;9.150;2022-10-19T13:17:40;21.10;1.00
774;DHT22;370;48.810;9.150;2022-10-19T13:20:44;21.10;1.00
774;DHT22;370;48.810;9.150;2022-10-19T13:23:39;21.10;1.00
774;DHT22;370;48.810;9.150;2022-10-19T13:26:29;20.90;1.00
774;DHT22;370;48.810;9.150;2022-10-19T13:28:57;20.90;1.00
774;DHT22;370;48.810;9.150;2022-10-19T13:31:27;20.80;1.00
774;DHT22;370;48.810;9.150;2022-10-19T13:33:54;20.80;1.00
774;DHT22;370;48.810;9.150;2022-10-19T13:36:22;20.70;1.00
774;DHT22;370;48.810;9.150;2022-10-19T13:39:04;20.50;1.00
774;DHT22;370;48.810;9.150;2022-10-19T13:41:50;20.50;1.00
774;DHT22;370;48.810;9.150;2022-10-19T13:44:28;20.70;1.00
774;DHT22;370;48.810;9.150;2022-10-19T13:47:12;20.30;1.00
774;DHT22;370;48.810;9.150;2022-10-19T13:52:58;20.10;1.00
774;DHT22;370;48.810;9.150;2022-10-19T13:55:47;19.90;1.00
774;DHT22;370;48.810;9.150;2022-10-19T14:01:40;19.90;1.00
774;DHT22;370;48.810;9.150;2022-10-19T14:04:19;19.90;1.00
774;DHT22;370;48.810;9.150;2022-10-19T14:06:50;19.60;1.00
774;DHT22;370;48.810;9.150;2022-10-19T14:09:43;19.60;1.00
774;DHT22;370;48.810;9.150;2022-10-19T14:12:17;19.50;1.00
774;DHT22;370;48.810;9.150;2022-10-19T14:14:46;19.20;1.00
774;DHT22;370;48.810;9.150;2022-10-19T14:17:17;19.10;2.10
774;DHT22;370;48.810;9.150;2022-10-19T14:19:47;19.00;2.10
774;DHT22;370;48.810;9.150;2022-10-19T14:22:22;19.00;2.40
774;DHT22;370;48.810;9.150;2022-10-19T14:24:49;18.90;2.00
774;DHT22;370;48.810;9.150;2022-10-19T14:27:18;18.90;2.50
774;DHT22;370;48.810;9.150;2022-10-19T14:29:47;18.80;2.50
774;DHT22;370;48.810;9.150;2022-10-19T14:32:14;18.70;3.10
774;DHT22;370;48.810;9.150;2022-10-19T14:34:46;18.60;3.40
774;DHT22;370;48.810;9.150;2022-10-19T14:37:17;18.50;4.20
774;DHT22;370;48.810;9.150;2022-10-19T14:39:57;18.50;4.50
774;DHT22;370;48.810;9.150;2022-10-19T14:42:34;18.40;4.40
774;DHT22;370;48.810;9.150;2022-10-19T14:45:02;18.40;4.60
774;DHT22;370;48.810;9.150;2022-10-19T14:47:29;18.40;5.10
774;DHT22;370;48.810;9.150;2022-10-19T14:49:57;18.40;5.80
774;DHT22;370;48.810;9.150;2022-10-19T14:52:28;18.40;5.50
774;DHT22;370;48.810;9.150;2022-10-19T14:54:57;18.50;5.40
774;DHT22;370;48.810;9.150;2022-10-19T14:57:27;18.50;5.20
774;DHT22;370;48.810;9.150;2022-10-19T14:59:56;18.50;5.20
774;DHT22;370;48.810;9.150;2022-10-19T15:02:26;18.60;4.90
774;DHT22;370;48.810;9.150;2022-10-19T15:04:58;18.70;4.70
774;DHT22;370;48.810;9.150;2022-10-19T15:07:29;18.70;4.20
774;DHT22;370;48.810;9.150;2022-10-19T15:10:00;18.70;4.20
774;DHT22;370;48.810;9.150;2022-10-19T15:12:32;18.60;4.30
774;DHT22;370;48.810;9.150;2022-10-19T15:15:00;18.50;5.00
774;DHT22;370;48.810;9.150;2022-10-19T15:17:32;18.30;5.40
774;DHT22;370;48.810;9.150;2022-10-19T15:20:02;18.30;6.20
774;DHT22;370;48.810;9.150;2022-10-19T15:22:38;18.20;6.20
774;DHT22;370;48.810;9.150;2022-10-19T15:25:25;18.10;6.70
774;DHT22;370;48.810;9.150;2022-10-19T15:27:53;17.90;7.60
774;DHT22;370;48.810;9.150;2022-10-19T15:30:25;18.00;7.60
774;DHT22;370;48.810;9.150;2022-10-19T15:32:57;17.90;7.90
774;DHT22;370;48.810;9.150;2022-10-19T15:35:36;17.80;8.80
774;DHT22;370;48.810;9.150;2022-10-19T15:38:05;17.70;9.60
774;DHT22;370;48.810;9.150;2022-10-19T15:40:36;17.70;9.80
774;DHT22;370;48.810;9.150;2022-10-19T15:43:35;17.70;9.30
774;DHT22;370;48.810;9.150;2022-10-19T15:46:03;17.60;10.20
774;DHT22;370;48.810;9.150;2022-10-19T15:48:48;17.50;10.10
774;DHT22;370;48.810;9.150;2022-10-19T15:51:41;17.30;10.40
774;DHT22;370;48.810;9.150;2022-10-19T15:54:09;17.30;11.40
774;DHT22;370;48.810;9.150;2022-10-19T15:56:37;17.20;11.80
774;DHT22;370;48.810;9.150;2022-10-19T15:59:09;17.30;12.00
774;DHT22;370;48.810;9.150;2022-10-19T16:01:36;17.30;12.20
774;DHT22;370;48.810;9.150;2022-10-19T16:04:03;17.10;12.70
774;DHT22;370;48.810;9.150;2022-10-19T16:06:32;17.00;13.40
774;DHT22;370;48.810;9.150;2022-10-19T16:09:00;16.90;14.20
774;DHT22;370;48.810;9.150;2022-10-19T16:11:28;16.80;14.30
774;DHT22;370;48.810;9.150;2022-10-19T16:13:55;16.80;14.40
774;DHT22;370;48.810;9.150;2022-10-19T16:16:23;16.70;14.70
774;DHT22;370;48.810;9.150;2022-10-19T16:18:50;16.60;15.30
774;DHT22;370;48.810;9.150;2022-10-19T16:21:19;16.50;16.70
774;DHT22;370;48.810;9.150;2022-10-19T16:23:45;16.40;17.10
774;DHT22;370;48.810;9.150;2022-10-19T16:26:15;16.30;18.10
774;DHT22;370;48.810;9.150;2022-10-19T16:28:43;16.30;18.10
774;DHT22;370;48.810;9.150;2022-10-19T16:31:10;16.30;18.10
774;DHT22;370;48.810;9.150;2022-10-19T16:33:37;16.20;18.00
774;DHT22;370;48.810;9.150;2022-10-19T16:36:05;16.10;19.50
774;DHT22;370;48.810;9.150;2022-10-19T16:38:32;16.00;19.90
774;DHT22;370;48.810;9.150;2022-10-19T16:41:00;16.00;20.40
774;DHT22;370;48.810;9.150;2022-10-19T16:43:28;15.90;21.00
774;DHT22;370;48.810;9.150;2022-10-19T16:45:55;15.80;22.60
774;DHT22;370;48.810;9.150;2022-10-19T16:48:23;15.70;23.30
774;DHT22;370;48.810;9.150;2022-10-19T16:51:18;15.70;23.50
774;DHT22;370;48.810;9.150;2022-10-19T16:53:49;15.60;23.90
774;DHT22;370;48.810;9.150;2022-10-19T16:56:16;15.50;24.20
774;DHT22;370;48.810;9.150;2022-10-19T16:58:43;15.40;25.00
774;DHT22;370;48.810;9.150;2022-10-19T17:01:11;15.30;25.90
774;DHT22;370;48.810;9.150;2022-10-19T17:03:38;15.30;27.20
774;DHT22;370;48.810;9.150;2022-10-19T17:06:06;15.20;26.90
774;DHT22;370;48.810;9.150;2022-10-19T17:08:35;15.20;27.70
774;DHT22;370;48.810;9.150;2022-10-19T17:11:08;15.10;28.30
774;DHT22;370;48.810;9.150;2022-10-19T17:13:35;15.10;28.20
774;DHT22;370;48.810;9.150;2022-10-19T17:16:03;15.10;28.60
774;DHT22;370;48.810;9.150;2022-10-19T17:18:30;15.10;28.90